Flight Track Log - Related Links

Times and Time Zones

All times are in EDT time to prevent confusion due to time zone crossing. See the JBU808 flight status page for this flight to view local times or setup timezone preferences in your user account.

Time Position Orientation Groundspeed Altitude Reporting Facility
EDT Latitude Longitude Course Direction KTS MPH feet Rate Location/Type
Tue 02:20:17 PM 18.3333 -64.9500 281° West 140 161 1,500  Level San Juan Center
Tue 02:21:18 PM 18.3000 -64.9667 205° Southwest 210 242 3,200 2,777 Climbing San Juan Center
Tue 02:22:18 PM 18.2833 -65.0500 258° West 290 334 7,100 2,400 Climbing San Juan Center
Tue 02:23:00 PM 18.2851 -65.2428 281° West  Level FlightAware Approximate
Tue 02:23:18 PM 18.3000 -65.1333 282° West 300 345 8,000  Level San Juan Center
Tue 02:24:00 PM 18.2982 -65.3125 281° West  Level FlightAware Approximate
Tue 02:24:19 PM 18.3167 -65.2167 282° West 300 345 8,000  Level San Juan Center
Tue 02:25:00 PM 18.3113 -65.3822 281° West  Level FlightAware Approximate
Tue 02:25:19 PM 18.3333 -65.3000 282° West 300 345 8,000  Level San Juan Center
Tue 02:26:19 PM 18.3500 -65.3833 282° West 300 345 8,000  Level San Juan Center
Tue 02:27:20 PM 18.3500 -65.4667 270° West 290 334 8,000 -50 Level San Juan Center
Tue 02:28:20 PM 18.3333 -65.5667 260° West 300 345 7,900 -545 Descending San Juan Center
Tue 02:29:21 PM 18.3333 -65.6500 270° West 300 345 6,900 -942 Descending San Juan Center
Tue 02:30:21 PM 18.3500 -65.7333 282° West 290 334 6,000 -450 Descending San Juan Center
Tue 02:31:21 PM 18.3500 -65.8167 270° West 290 334 6,000  Level San Juan Center
Tue 02:32:21 PM 18.3500 -65.9000 270° West 250 288 6,000 -50 Level San Juan Center
Tue 02:33:22 PM 18.3667 -65.9500 289° West 220 253 5,900 -694 Descending San Juan Center
Tue 02:34:22 PM 18.3667 -66.0167 270° West 220 253 4,600 -1,350 Descending San Juan Center
Tue 02:35:22 PM 18.3667 -66.0833 270° West 210 242 3,200 -1,240 Descending San Juan Center
Tue 02:36:23 PM 18.4167 -66.1000 342° North 190 219 2,100 -992 Descending San Juan Center
Tue 02:37:23 PM 18.4333 -66.0500 71° East 140 161 1,200 -843 Descending San Juan Center
Tue 02:38:24 PM 18.4333 -66.0167 90° East 130 150 400 -787 Descending San Juan Center

Login

Don't have an account? Register now (free) for customized features, flight alerts, and more!